createdAt,value
2024-03-12T00:01:28.013Z,96015.09
2024-03-12T00:03:56.574Z,96022.72
2024-03-12T00:06:24.091Z,96039.53
2024-03-12T00:08:50.878Z,96034.59
2024-03-12T00:11:17.759Z,96029.25
2024-03-12T00:13:44.553Z,96027.19
2024-03-12T00:16:11.626Z,96029.41
2024-03-12T00:18:40.863Z,96024.47
2024-03-12T00:21:09.097Z,96026.53
2024-03-12T00:23:35.922Z,96037.16
2024-03-12T00:26:04.398Z,96042.31
2024-03-12T00:28:32.881Z,96049.97
2024-03-12T00:31:00.826Z,96048.63
2024-03-12T00:33:27.676Z,96052.59
2024-03-12T00:35:54.431Z,96048.72
2024-03-12T00:38:21.199Z,96053.25
2024-03-12T00:40:49.575Z,96049.91
2024-03-12T00:43:16.512Z,96049.44
2024-03-12T00:45:43.558Z,96048.50
2024-03-12T00:48:16.380Z,96049.50
2024-03-12T00:50:47.592Z,96054.16
2024-03-12T00:53:15.512Z,96050.88
2024-03-12T00:55:42.634Z,96052.03
2024-03-12T00:58:12.213Z,96049.25
2024-03-12T01:00:41.645Z,96050.06
2024-03-12T01:03:13.476Z,96055.19
2024-03-12T01:05:40.930Z,96051.88
2024-03-12T01:08:09.445Z,96054.44
2024-03-12T01:10:36.587Z,96058.19
2024-03-12T01:13:11.320Z,96058.78
2024-03-12T01:15:40.278Z,96059.94
2024-03-12T01:18:09.933Z,96065.88
2024-03-12T01:20:37.230Z,96058.50
2024-03-12T01:23:07.283Z,96064.00
2024-03-12T01:25:37.578Z,96066.28
2024-03-12T01:28:08.027Z,96068.72
2024-03-12T01:30:35.945Z,96075.06
2024-03-12T01:33:04.188Z,96066.81
2024-03-12T01:35:32.100Z,96061.53
2024-03-12T01:37:59.399Z,96069.69
2024-03-12T01:40:31.791Z,96071.28
2024-03-12T01:43:04.081Z,96075.72
2024-03-12T01:45:33.478Z,96077.41
2024-03-12T01:48:05.235Z,96078.81
2024-03-12T01:50:32.924Z,96074.19
2024-03-12T01:53:07.673Z,96077.88
2024-03-12T01:55:38.893Z,96075.97
2024-03-12T01:58:05.898Z,96080.75
2024-03-12T02:00:34.941Z,96083.28
2024-03-12T02:03:02.230Z,96091.72
2024-03-12T02:05:29.133Z,96087.25
2024-03-12T02:07:56.357Z,96090.69
2024-03-12T02:10:23.558Z,96084.38
2024-03-12T02:12:50.588Z,96083.03
2024-03-12T02:15:25.213Z,96084.22
2024-03-12T02:17:55.122Z,96088.38
2024-03-12T02:20:23.367Z,96087.94
2024-03-12T02:22:57.243Z,96096.16
2024-03-12T02:25:24.694Z,96095.94
2024-03-12T02:27:52.316Z,96097.44
2024-03-12T02:30:19.790Z,96105.69
2024-03-12T02:32:50.093Z,96106.72
2024-03-12T02:35:17.734Z,96113.88
2024-03-12T02:37:45.152Z,96107.81
2024-03-12T02:40:16.493Z,96106.47
2024-03-12T02:42:44.288Z,96107.28
2024-03-12T02:45:22.495Z,96118.81
2024-03-12T02:47:49.456Z,96121.09
2024-03-12T02:50:19.677Z,96122.72
2024-03-12T02:52:47.057Z,96114.50
2024-03-12T02:55:14.143Z,96115.16
2024-03-12T02:57:41.103Z,96121.59
2024-03-12T03:00:15.570Z,96114.28
2024-03-12T03:02:43.810Z,96126.38
2024-03-12T03:05:11.800Z,96131.44
2024-03-12T03:07:41.621Z,96130.84
2024-03-12T03:10:09.062Z,96124.22
2024-03-12T03:12:36.012Z,96121.59
2024-03-12T03:15:02.975Z,96116.91
2024-03-12T03:17:29.667Z,96121.38
2024-03-12T03:19:56.438Z,96116.13
2024-03-12T03:22:23.251Z,96120.72
2024-03-12T03:24:49.918Z,96127.97
2024-03-12T03:27:16.674Z,96135.13
2024-03-12T03:29:44.252Z,96136.31
2024-03-12T03:32:10.967Z,96128.13
2024-03-12T03:34:38.698Z,96132.56
2024-03-12T03:37:05.924Z,96132.81
2024-03-12T03:39:36.421Z,96137.88
2024-03-12T03:42:03.645Z,96137.84
2024-03-12T03:44:30.873Z,96142.66
2024-03-12T03:46:57.590Z,96146.31
2024-03-12T03:49:24.264Z,96148.91
2024-03-12T03:51:52.385Z,96150.19
2024-03-12T03:54:19.130Z,96153.41
2024-03-12T03:56:46.412Z,96150.03
2024-03-12T03:59:17.202Z,96153.91
2024-03-12T04:01:44.174Z,96155.13
2024-03-12T04:04:14.437Z,96159.97
2024-03-12T04:06:45.416Z,96150.81
2024-03-12T04:09:12.864Z,96149.78
2024-03-12T04:11:39.902Z,96162.16
2024-03-12T04:14:06.644Z,96164.44
2024-03-12T04:16:33.431Z,96161.47
2024-03-12T04:19:03.164Z,96164.47
2024-03-12T04:21:29.987Z,96164.28
2024-03-12T04:23:56.750Z,96168.94
2024-03-12T04:26:23.669Z,96176.09
2024-03-12T04:28:50.519Z,96174.28
2024-03-12T04:31:22.253Z,96183.84
2024-03-12T04:33:49.203Z,96180.31
2024-03-12T04:36:15.993Z,96187.97
2024-03-12T04:38:42.784Z,96181.91
2024-03-12T04:41:10.853Z,96176.47
2024-03-12T04:43:38.247Z,96178.91
2024-03-12T04:46:05.382Z,96177.81
2024-03-12T04:48:32.321Z,96179.34
2024-03-12T04:50:59.163Z,96182.63
2024-03-12T04:53:26.801Z,96189.50
2024-03-12T04:55:53.571Z,96186.59
2024-03-12T04:58:20.376Z,96195.25
2024-03-12T05:00:47.269Z,96197.66
2024-03-12T05:03:14.239Z,96200.78
2024-03-12T05:05:41.882Z,96194.84
2024-03-12T05:08:09.234Z,96202.69
2024-03-12T05:10:37.804Z,96203.50
2024-03-12T05:13:04.923Z,96201.06
2024-03-12T05:15:32.432Z,96203.41
2024-03-12T05:17:59.412Z,96206.72
2024-03-12T05:20:26.966Z,96205.22
2024-03-12T05:22:55.200Z,96205.94
2024-03-12T05:25:25.728Z,96214.97
2024-03-12T05:27:52.888Z,96225.13
2024-03-12T05:30:22.185Z,96224.94
2024-03-12T05:32:50.155Z,96225.25
2024-03-12T05:35:26.677Z,96231.06
2024-03-12T05:38:12.993Z,96225.66
2024-03-12T05:40:58.829Z,96227.47
2024-03-12T05:43:44.445Z,96236.53
2024-03-12T05:46:29.949Z,96232.50
2024-03-12T05:48:56.758Z,96236.53
2024-03-12T05:51:23.495Z,96241.22
2024-03-12T05:53:50.359Z,96252.41
2024-03-12T05:56:19.821Z,96244.75
2024-03-12T05:58:47.492Z,96246.16
2024-03-12T06:01:14.759Z,96248.19
2024-03-12T06:03:41.912Z,96257.84
2024-03-12T06:06:09.309Z,96252.81
2024-03-12T06:08:36.706Z,96261.97
2024-03-12T06:11:03.901Z,96258.56
2024-03-12T06:13:30.747Z,96267.09
2024-03-12T06:15:58.630Z,96265.59
2024-03-12T06:18:27.199Z,96278.81
2024-03-12T06:20:54.047Z,96272.53
2024-03-12T06:23:22.556Z,96277.28
2024-03-12T06:25:49.291Z,96281.22
2024-03-12T06:28:16.642Z,96275.06
2024-03-12T06:30:44.647Z,96279.91
2024-03-12T06:33:13.567Z,96281.91
2024-03-12T06:35:41.436Z,96287.44
2024-03-12T06:38:08.676Z,96283.22
2024-03-12T06:40:35.853Z,96289.34
2024-03-12T06:43:02.668Z,96288.22
2024-03-12T06:45:29.658Z,96299.31
2024-03-12T06:47:57.349Z,96297.72
2024-03-12T06:50:27.793Z,96297.13
2024-03-12T06:52:55.941Z,96298.09
2024-03-12T06:55:26.082Z,96301.34
2024-03-12T06:57:56.556Z,96303.44
2024-03-12T07:00:39.246Z,96315.94
2024-03-12T07:03:06.328Z,96318.25
2024-03-12T07:05:38.463Z,96323.69
2024-03-12T07:08:10.867Z,96322.56
2024-03-12T07:10:41.914Z,96321.16
2024-03-12T07:13:09.413Z,96328.53
2024-03-12T07:15:37.572Z,96329.94
2024-03-12T07:18:05.169Z,96337.19
2024-03-12T07:20:32.634Z,96327.22
2024-03-12T07:23:00.152Z,96341.81
2024-03-12T07:25:27.166Z,96339.94
2024-03-12T07:27:54.688Z,96335.91
2024-03-12T07:30:23.482Z,96345.34
2024-03-12T07:32:50.294Z,96344.53
2024-03-12T07:35:18.626Z,96349.56
2024-03-12T07:37:47.350Z,96351.78
2024-03-12T07:40:17.455Z,96352.09
2024-03-12T07:42:45.653Z,96356.63
2024-03-12T07:45:14.436Z,96354.09
2024-03-12T07:47:41.284Z,96357.31
2024-03-12T07:50:09.656Z,96360.94
2024-03-12T07:52:37.155Z,96367.88
2024-03-12T07:55:04.911Z,96371.41
2024-03-12T07:57:34.832Z,96371.97
2024-03-12T08:00:01.681Z,96379.72
2024-03-12T08:02:28.507Z,96370.03
2024-03-12T08:04:55.232Z,96375.03
2024-03-12T08:07:22.059Z,96380.34
2024-03-12T08:09:50.269Z,96386.44
2024-03-12T08:12:18.400Z,96392.91
2024-03-12T08:14:45.733Z,96396.38
2024-03-12T08:17:13.845Z,96396.75
2024-03-12T08:19:42.070Z,96395.13
2024-03-12T08:22:10.146Z,96389.50
2024-03-12T08:24:38.741Z,96391.72
2024-03-12T08:27:06.834Z,96382.19
2024-03-12T08:29:33.882Z,96394.56
2024-03-12T08:32:01.586Z,96395.25
2024-03-12T08:34:28.687Z,96387.97
2024-03-12T08:36:56.917Z,96391.88
2024-03-12T08:39:23.992Z,96390.63
2024-03-12T08:41:50.742Z,96399.03
2024-03-12T08:44:17.958Z,96400.97
2024-03-12T08:46:44.743Z,96413.91
2024-03-12T08:49:12.774Z,96412.72
2024-03-12T08:51:41.260Z,96408.00
2024-03-12T08:54:10.434Z,96415.25
2024-03-12T08:56:37.521Z,96411.41
2024-03-12T08:59:06.647Z,96409.97
2024-03-12T09:01:33.616Z,96413.75
2024-03-12T09:04:01.026Z,96421.81
2024-03-12T09:06:28.041Z,96415.38
2024-03-12T09:08:56.252Z,96420.69
2024-03-12T09:11:23.005Z,96423.03
2024-03-12T09:13:50.057Z,96430.22
2024-03-12T09:16:17.647Z,96429.56
2024-03-12T09:18:45.070Z,96431.91
2024-03-12T09:21:16.540Z,96428.38
2024-03-12T09:23:53.451Z,96426.78
2024-03-12T09:26:29.607Z,96430.69
2024-03-12T09:28:56.710Z,96437.81
2024-03-12T09:31:23.666Z,96438.09
2024-03-12T09:33:53.766Z,96434.47
2024-03-12T09:36:21.912Z,96434.31
2024-03-12T09:38:52.162Z,96440.22
2024-03-12T09:41:21.969Z,96441.72
2024-03-12T09:43:48.809Z,96434.03
2024-03-12T09:46:18.024Z,96446.31
2024-03-12T09:48:46.975Z,96440.25
2024-03-12T09:51:14.429Z,96440.63
2024-03-12T09:53:43.587Z,96444.69
2024-03-12T09:56:12.193Z,96446.09
2024-03-12T09:58:39.826Z,96442.81
2024-03-12T10:01:08.072Z,96446.53
2024-03-12T10:03:38.471Z,96440.34
2024-03-12T10:06:07.878Z,96445.28
2024-03-12T10:08:36.178Z,96452.88
2024-03-12T10:11:10.116Z,96447.72
2024-03-12T10:13:41.801Z,96448.97
2024-03-12T10:16:09.849Z,96448.72
2024-03-12T10:18:38.864Z,96457.56
2024-03-12T10:21:08.513Z,96454.31
2024-03-12T10:23:38.006Z,96454.38
2024-03-12T10:26:19.672Z,96446.16
2024-03-12T10:28:47.159Z,96450.25
2024-03-12T10:31:14.945Z,96452.44
2024-03-12T10:33:46.940Z,96454.22
2024-03-12T10:36:15.080Z,96454.19
2024-03-12T10:38:42.141Z,96450.13
2024-03-12T10:41:17.992Z,96456.31
2024-03-12T10:43:50.873Z,96460.69
2024-03-12T10:46:21.100Z,96455.81
2024-03-12T10:48:52.115Z,96461.84
2024-03-12T10:51:20.762Z,96459.31
2024-03-12T10:53:53.221Z,96463.84
2024-03-12T10:56:21.220Z,96463.41
2024-03-12T10:58:50.140Z,96463.03
2024-03-12T11:01:20.038Z,96461.84
2024-03-12T11:03:48.422Z,96461.53
2024-03-12T11:06:16.028Z,96470.56
2024-03-12T11:08:47.476Z,96455.72
2024-03-12T11:11:15.347Z,96468.41
2024-03-12T11:13:42.739Z,96468.28
2024-03-12T11:16:14.997Z,96458.44
2024-03-12T11:18:42.348Z,96467.00
2024-03-12T11:21:32.923Z,96467.63
2024-03-12T11:23:59.790Z,96456.72
2024-03-12T11:26:36.418Z,96459.50
2024-03-12T11:29:03.516Z,96467.63
2024-03-12T11:31:39.863Z,96460.78
2024-03-12T11:34:06.754Z,96464.69
2024-03-12T11:36:42.344Z,96460.03
2024-03-12T11:39:16.820Z,96465.00
2024-03-12T11:42:02.209Z,96456.06
2024-03-12T11:44:46.014Z,96466.84
2024-03-12T11:47:30.264Z,96474.22
2024-03-12T11:49:59.561Z,96470.31
2024-03-12T11:52:28.769Z,96463.66
2024-03-12T11:54:55.590Z,96462.81
2024-03-12T11:57:25.878Z,96462.69
2024-03-12T11:59:52.696Z,96457.09
2024-03-12T12:02:21.977Z,96463.50
2024-03-12T12:04:55.881Z,96457.09
2024-03-12T12:07:24.263Z,96456.84
2024-03-12T12:09:53.136Z,96457.50
2024-03-12T12:12:21.280Z,96451.03
2024-03-12T12:14:49.529Z,96447.69
2024-03-12T12:17:24.182Z,96442.31
2024-03-12T12:20:16.499Z,96436.78
2024-03-12T12:22:47.756Z,96434.50
2024-03-12T12:25:20.193Z,96417.00
2024-03-12T12:27:47.708Z,96418.50
2024-03-12T12:30:16.439Z,96414.81
2024-03-12T12:32:43.630Z,96409.97
2024-03-12T12:35:15.435Z,96409.66
2024-03-12T12:37:46.224Z,96405.63
2024-03-12T12:40:18.601Z,96400.88
2024-03-12T12:42:47.236Z,96393.56
2024-03-12T12:45:15.381Z,96389.69
2024-03-12T12:47:50.607Z,96387.91
2024-03-12T12:50:31.413Z,96390.47
2024-03-12T12:53:02.836Z,96401.03
2024-03-12T12:55:33.384Z,96405.31
2024-03-12T12:58:06.105Z,96408.25
2024-03-12T13:00:37.880Z,96400.41
2024-03-12T13:03:12.883Z,96416.59
2024-03-12T13:05:42.810Z,96414.97
2024-03-12T13:08:22.344Z,96419.25
2024-03-12T13:10:58.681Z,96416.53
2024-03-12T13:13:29.111Z,96419.06
2024-03-12T13:15:55.970Z,96411.78
2024-03-12T13:18:22.789Z,96419.69
2024-03-12T13:20:50.724Z,96421.34
2024-03-12T13:23:20.475Z,96431.19
2024-03-12T13:25:47.313Z,96425.41
2024-03-12T13:28:17.195Z,96426.72
2024-03-12T13:30:44.383Z,96421.97
2024-03-12T13:33:11.234Z,96421.91
2024-03-12T13:35:38.094Z,96422.19
2024-03-12T13:38:05.657Z,96421.75
2024-03-12T13:40:32.723Z,96423.00
2024-03-12T13:42:59.480Z,96415.63
2024-03-12T13:45:26.221Z,96414.16
2024-03-12T13:47:53.547Z,96414.88
2024-03-12T13:50:20.380Z,96417.00
2024-03-12T13:52:48.467Z,96416.75
2024-03-12T13:55:15.290Z,96419.16
2024-03-12T13:57:42.939Z,96423.31
2024-03-12T14:00:11.528Z,96418.91
2024-03-12T14:02:38.482Z,96420.91
2024-03-12T14:05:06.198Z,96414.31
2024-03-12T14:07:33.665Z,96412.47
2024-03-12T14:10:00.679Z,96421.69
2024-03-12T14:12:27.489Z,96418.91
2024-03-12T14:14:54.138Z,96416.59
2024-03-12T14:17:21.638Z,96419.50
2024-03-12T14:19:48.433Z,96423.28
2024-03-12T14:22:15.170Z,96419.53
2024-03-12T14:24:41.948Z,96417.38
2024-03-12T14:27:08.706Z,96410.66
2024-03-12T14:29:35.509Z,96406.53
2024-03-12T14:32:02.266Z,96404.09
2024-03-12T14:34:29.879Z,96410.78
2024-03-12T14:36:56.783Z,96412.50
2024-03-12T14:39:24.401Z,96412.28
2024-03-12T14:41:52.190Z,96418.03
2024-03-12T14:44:18.964Z,96413.53
2024-03-12T14:46:48.443Z,96408.91
2024-03-12T14:49:15.253Z,96414.44
2024-03-12T14:51:42.556Z,96411.31
2024-03-12T14:54:09.594Z,96408.13
2024-03-12T14:56:36.388Z,96411.59
2024-03-12T14:59:07.144Z,96406.66
2024-03-12T15:01:34.091Z,96410.94
2024-03-12T15:04:02.812Z,96410.25
2024-03-12T15:06:29.536Z,96412.19
2024-03-12T15:08:57.173Z,96412.19
2024-03-12T15:11:24.121Z,96406.31
2024-03-12T15:13:51.150Z,96407.91
2024-03-12T15:16:21.991Z,96410.09
2024-03-12T15:18:49.726Z,96410.41
2024-03-12T15:21:19.320Z,96413.19
2024-03-12T15:23:46.203Z,96409.28
2024-03-12T15:26:13.056Z,96415.72
2024-03-12T15:28:39.739Z,96414.41
2024-03-12T15:31:06.528Z,96415.00
2024-03-12T15:33:34.505Z,96416.97
2024-03-12T15:36:01.448Z,96426.50
2024-03-12T15:38:28.854Z,96420.78
2024-03-12T15:40:55.992Z,96419.75
2024-03-12T15:43:22.986Z,96426.47
2024-03-12T15:45:49.790Z,96430.13
2024-03-12T15:48:16.657Z,96437.25
2024-03-12T15:50:45.021Z,96435.84
2024-03-12T15:53:13.073Z,96430.28
2024-03-12T15:55:41.495Z,96420.88
2024-03-12T15:58:08.454Z,96427.25
2024-03-12T16:00:35.680Z,96441.59
2024-03-12T16:03:02.522Z,96436.94
2024-03-12T16:05:30.462Z,96432.19
2024-03-12T16:07:58.158Z,96433.56
2024-03-12T16:10:25.864Z,96438.63
2024-03-12T16:12:52.613Z,96429.56
2024-03-12T16:15:19.481Z,96430.31
2024-03-12T16:17:46.311Z,96432.41
2024-03-12T16:20:16.571Z,96428.66
2024-03-12T16:22:43.590Z,96433.66
2024-03-12T16:25:10.731Z,96443.31
2024-03-12T16:27:38.221Z,96444.38
2024-03-12T16:30:05.798Z,96442.63
2024-03-12T16:32:33.751Z,96444.25
2024-03-12T16:35:00.959Z,96447.69
2024-03-12T16:37:27.858Z,96447.69
2024-03-12T16:39:55.644Z,96443.56
2024-03-12T16:42:22.532Z,96454.38
2024-03-12T16:44:51.404Z,96448.38
2024-03-12T16:47:18.187Z,96446.31
2024-03-12T16:49:46.729Z,96450.84
2024-03-12T16:52:13.500Z,96444.19
2024-03-12T16:54:40.606Z,96443.97
2024-03-12T16:57:09.097Z,96448.34
2024-03-12T16:59:36.182Z,96447.19
2024-03-12T17:02:05.931Z,96451.78
2024-03-12T17:04:33.067Z,96456.09
2024-03-12T17:07:05.520Z,96459.66
2024-03-12T17:09:33.030Z,96452.75
2024-03-12T17:12:00.028Z,96460.59
2024-03-12T17:14:30.960Z,96458.25
2024-03-12T17:17:07.333Z,96463.31
2024-03-12T17:19:35.746Z,96463.31
2024-03-12T17:22:03.742Z,96463.56
2024-03-12T17:24:32.124Z,96467.03
2024-03-12T17:26:59.060Z,96467.25
2024-03-12T17:29:26.941Z,96476.81
2024-03-12T17:31:56.830Z,96477.81
2024-03-12T17:34:23.806Z,96474.72
2024-03-12T17:36:54.811Z,96476.56
2024-03-12T17:39:22.348Z,96474.31
2024-03-12T17:41:49.438Z,96474.66
2024-03-12T17:44:18.036Z,96479.59
2024-03-12T17:46:45.241Z,96484.38
2024-03-12T17:49:18.224Z,96489.19
2024-03-12T17:51:48.006Z,96492.31
2024-03-12T17:54:17.760Z,96483.09
2024-03-12T17:56:48.446Z,96489.78
2024-03-12T17:59:18.255Z,96485.75
2024-03-12T18:01:46.083Z,96492.19
2024-03-12T18:04:14.348Z,96500.69
2024-03-12T18:06:47.556Z,96501.03
2024-03-12T18:09:21.489Z,96502.75
2024-03-12T18:11:48.428Z,96503.31
2024-03-12T18:14:16.017Z,96499.88
2024-03-12T18:16:42.694Z,96497.25
2024-03-12T18:19:09.559Z,96506.56
2024-03-12T18:21:38.249Z,96508.16
2024-03-12T18:24:05.880Z,96504.03
2024-03-12T18:26:35.895Z,96518.06
2024-03-12T18:29:04.527Z,96506.78
2024-03-12T18:31:31.516Z,96507.63
2024-03-12T18:33:58.325Z,96507.91
2024-03-12T18:36:25.762Z,96510.88
2024-03-12T18:38:52.536Z,96508.03
2024-03-12T18:41:19.274Z,96503.19
2024-03-12T18:43:45.959Z,96510.69
2024-03-12T18:46:12.739Z,96506.78
2024-03-12T18:48:39.862Z,96508.63
2024-03-12T18:51:07.270Z,96502.63
2024-03-12T18:53:35.654Z,96505.50
2024-03-12T18:56:04.124Z,96506.75
2024-03-12T18:58:31.092Z,96506.91
2024-03-12T19:00:58.440Z,96511.09
2024-03-12T19:03:32.101Z,96514.59
2024-03-12T19:06:02.452Z,96510.94
2024-03-12T19:08:31.726Z,96514.03
2024-03-12T19:10:59.774Z,96512.84
2024-03-12T19:13:27.167Z,96506.06
2024-03-12T19:15:54.075Z,96510.06
2024-03-12T19:18:24.135Z,96509.84
2024-03-12T19:20:56.152Z,96505.56
2024-03-12T19:23:25.070Z,96506.19
2024-03-12T19:25:51.939Z,96510.13
2024-03-12T19:28:18.727Z,96509.25
2024-03-12T19:30:45.701Z,96515.31
2024-03-12T19:33:14.879Z,96508.31
2024-03-12T19:35:41.994Z,96509.59
2024-03-12T19:38:10.577Z,96502.72
2024-03-12T19:40:37.422Z,96512.38
2024-03-12T19:43:04.632Z,96522.50
2024-03-12T19:45:32.253Z,96522.75
2024-03-12T19:47:59.117Z,96525.28
2024-03-12T19:50:26.324Z,96523.69
2024-03-12T19:52:54.477Z,96525.75
2024-03-12T19:55:31.768Z,96525.53
2024-03-12T19:58:01.901Z,96529.00
2024-03-12T20:00:32.090Z,96532.53
2024-03-12T20:03:00.893Z,96534.59
2024-03-12T20:05:28.857Z,96539.03
2024-03-12T20:08:06.141Z,96539.22
2024-03-12T20:10:35.872Z,96550.09
2024-03-12T20:13:06.063Z,96541.34
2024-03-12T20:15:33.827Z,96541.88
2024-03-12T20:18:02.519Z,96549.75
2024-03-12T20:20:29.507Z,96548.34
2024-03-12T20:22:56.979Z,96552.88
2024-03-12T20:25:23.936Z,96562.69
2024-03-12T20:27:55.052Z,96558.00
2024-03-12T20:30:28.575Z,96566.59
2024-03-12T20:33:00.242Z,96574.41
2024-03-12T20:35:29.267Z,96566.06
2024-03-12T20:37:56.910Z,96575.00
2024-03-12T20:40:26.501Z,96577.09
2024-03-12T20:42:54.041Z,96576.13
2024-03-12T20:45:22.894Z,96577.00
2024-03-12T20:47:50.218Z,96581.03
2024-03-12T20:50:21.013Z,96587.56
2024-03-12T20:52:48.491Z,96585.94
2024-03-12T20:55:15.860Z,96589.75
2024-03-12T20:57:48.530Z,96598.13
2024-03-12T21:00:33.480Z,96592.06
2024-03-12T21:03:00.265Z,96595.91
2024-03-12T21:05:31.852Z,96601.97
2024-03-12T21:07:58.712Z,96612.59
2024-03-12T21:10:25.577Z,96606.06
2024-03-12T21:12:53.076Z,96613.66
2024-03-12T21:15:20.295Z,96610.91
2024-03-12T21:17:47.269Z,96615.13
2024-03-12T21:20:19.728Z,96617.44
2024-03-12T21:22:46.637Z,96615.97
2024-03-12T21:25:13.529Z,96616.19
2024-03-12T21:27:40.517Z,96610.03
2024-03-12T21:30:15.535Z,96621.34
2024-03-12T21:32:42.668Z,96620.81
2024-03-12T21:35:10.552Z,96612.44
2024-03-12T21:37:39.649Z,96623.94
2024-03-12T21:40:12.862Z,96613.13
2024-03-12T21:42:40.387Z,96614.78
2024-03-12T21:45:07.699Z,96614.69
2024-03-12T21:47:38.152Z,96625.47
2024-03-12T21:50:15.351Z,96620.31
2024-03-12T21:52:42.744Z,96612.47
2024-03-12T21:55:11.779Z,96609.03
2024-03-12T21:57:40.190Z,96607.81
2024-03-12T22:00:20.497Z,96599.72
2024-03-12T22:02:48.072Z,96594.28
2024-03-12T22:05:17.168Z,96601.75
2024-03-12T22:07:45.015Z,96593.66
2024-03-12T22:10:13.645Z,96591.97
2024-03-12T22:12:42.052Z,96587.31
2024-03-12T22:15:13.030Z,96576.19
2024-03-12T22:17:40.206Z,96578.53
2024-03-12T22:20:07.225Z,96581.53
2024-03-12T22:22:34.370Z,96578.91
2024-03-12T22:25:01.211Z,96564.09
2024-03-12T22:27:29.732Z,96570.22
2024-03-12T22:29:56.596Z,96568.81
2024-03-12T22:32:27.471Z,96564.59
2024-03-12T22:34:56.014Z,96570.66
2024-03-12T22:37:23.243Z,96566.72
2024-03-12T22:39:50.323Z,96563.78
2024-03-12T22:42:18.932Z,96567.63
2024-03-12T22:44:45.714Z,96567.84
2024-03-12T22:47:12.817Z,96558.56
2024-03-12T22:49:44.477Z,96557.75
2024-03-12T22:52:13.035Z,96563.00
2024-03-12T22:54:40.396Z,96565.03
2024-03-12T22:57:08.431Z,96564.50
2024-03-12T22:59:35.585Z,96561.19
2024-03-12T23:02:04.334Z,96553.38
2024-03-12T23:04:31.369Z,96545.22
2024-03-12T23:06:59.041Z,96552.41
2024-03-12T23:09:27.160Z,96552.50
2024-03-12T23:11:56.757Z,96553.91
2024-03-12T23:14:25.381Z,96551.50
2024-03-12T23:16:52.343Z,96550.09
2024-03-12T23:19:19.874Z,96550.88
2024-03-12T23:21:47.358Z,96546.78
2024-03-12T23:24:15.139Z,96546.53
2024-03-12T23:26:43.687Z,96541.00
2024-03-12T23:29:11.473Z,96540.41
2024-03-12T23:31:38.686Z,96550.13
2024-03-12T23:34:07.217Z,96541.09
2024-03-12T23:36:34.722Z,96532.91
2024-03-12T23:39:01.517Z,96533.25
2024-03-12T23:41:31.325Z,96525.28
2024-03-12T23:43:58.318Z,96531.72
2024-03-12T23:46:26.338Z,96528.19
2024-03-12T23:48:53.560Z,96526.59
2024-03-12T23:51:20.340Z,96516.16
2024-03-12T23:53:47.522Z,96527.66
2024-03-12T23:56:14.263Z,96511.84
2024-03-12T23:58:40.938Z,96513.16
